Airfield :
LOGIN :

Register | Disclaimer

   EN    FR    IT 

 










Legend :    VFR   Marginal VFR   IFR   Intensive IFR   Very Intensive IFR
Visi :
Ceiling :
>= 8 km
>= 3000ft
5 to 8 km
1000 to 3000 ft
1500m to 5 km
500 to 1000 ft
800 to 1500m
200 to 500 ft
< 800m
< 200 ft
Symbols :   Thunderstorms  Fog  Heavy snow  Heavy precipitations  Wind > 20 kt
SIGMETs :     Misc.  Thunderstorms  Icing  Turbulence  Mountain Waves  Volcanic Ashes







- Airport Elevation : 327 ft
- IATA code : BHX
- Download approach charts


EGBB - Birmingham

CURRENT METAR :
  • 191220Z 10009KT 2200 -RA BR BKN003 14/14 Q1000 RERA

EXPIRED METARs :
  • 191150Z 11008KT 2400 RA BKN004 14/14 Q1002
  • 191120Z 11006KT 2300 -RA BR BKN005 13/13 Q1002
  • 191050Z 10004KT 070V140 2300 -RA BR BKN005 13/13 Q1003
  • 191020Z 12004KT 080V150 2900 -RA BR SCT006 BKN014 13/13 Q1003 RERA
  • 190950Z 12005KT 2500 RA BR BKN005 12/12 Q1004

TAF AMD TAF EGBB
Valid from the 19 at 12:00 until the 20 at 12:00 UTC


191159Z 1912/2012 11004KT 9999 SCT004 BKN015
TEMPO 1912/1915 2500 RA BR BKN004
BECMG 1918/1921 14014KT
TEMPO 1918/1921 18017G27KT 7000 RA BKN009
TEMPO 2000/2006 8000 BKN006
PROB30
TEMPO 2000/2003 BKN004
BECMG 2003/2006 26014KT
PROB30
TEMPO 2006/2012 BKN008
ATIS : +44 121 780 0910
No reported NOTAMs for that airfield.



MET'MAP, your aeronautical weather chart ! - Copyright ORBIFLY December 2007 - Disclaimer

ORBIFLY MET'MAP TEAM :

Programming & Development : Alexandra Zaïnal
Concept & Development : Baudouin d'Aumeries
Co-Development & Prog : Marc-Olivier Méhu
Technical & hardware support : Manuel Goepfert

Contact : metmap@orbifly.com




SOURCES & CREDITS :

   NOAA